createdAt,value
2017-09-08T00:00:31.831Z,1003.12
2017-09-08T00:01:26.744Z,1003.08
2017-09-08T00:02:21.812Z,1003.11
2017-09-08T00:03:21.781Z,1003.12
2017-09-08T00:04:15.822Z,1003.10
2017-09-08T00:05:22.183Z,1003.07
2017-09-08T00:06:16.204Z,1003.06
2017-09-08T00:07:09.928Z,1003.04
2017-09-08T00:08:03.938Z,1003.01
2017-09-08T00:09:04.423Z,1003.03
2017-09-08T00:10:03.991Z,1003.02
2017-09-08T00:11:04.069Z,1002.98
2017-09-08T00:12:04.093Z,1002.98
2017-09-08T00:12:58.269Z,1002.94
2017-09-08T00:13:47.154Z,1002.90
2017-09-08T00:14:35.609Z,1002.88
2017-09-08T00:15:30.239Z,1002.88
2017-09-08T00:16:25.324Z,1002.86
2017-09-08T00:17:20.629Z,1002.88
2017-09-08T00:18:20.324Z,1002.86
2017-09-08T00:19:09.374Z,1002.87
2017-09-08T00:19:58.373Z,1002.87
2017-09-08T00:20:52.478Z,1002.82
2017-09-08T00:21:41.506Z,1002.79
2017-09-08T00:22:29.917Z,1002.77
2017-09-08T00:23:23.579Z,1002.78
2017-09-08T00:24:11.909Z,1002.75
2017-09-08T00:25:06.651Z,1002.76
2017-09-08T00:26:01.792Z,1002.67
2017-09-08T00:26:55.732Z,1002.70
2017-09-08T00:27:43.818Z,1002.70
2017-09-08T00:28:31.950Z,1002.68
2017-09-08T00:29:32.196Z,1002.66
2017-09-08T00:30:25.903Z,1002.68
2017-09-08T00:31:20.887Z,1002.67
2017-09-08T00:32:09.927Z,1002.67
2017-09-08T00:33:10.034Z,1002.62
2017-09-08T00:34:04.352Z,1002.62
2017-09-08T00:35:04.047Z,1002.57
2017-09-08T00:35:58.370Z,1002.59
2017-09-08T00:36:46.412Z,1002.57
2017-09-08T00:37:34.146Z,1002.56
2017-09-08T00:38:35.225Z,1002.58
2017-09-08T00:39:36.604Z,1002.58
2017-09-08T00:40:25.352Z,1002.57
2017-09-08T00:41:20.300Z,1002.58
2017-09-08T00:42:14.432Z,1002.58
2017-09-08T00:43:02.476Z,1002.58
2017-09-08T00:43:51.776Z,1002.56
2017-09-08T00:44:45.846Z,1002.58
2017-09-08T00:45:34.502Z,1002.55
2017-09-08T00:46:23.696Z,1002.54
2017-09-08T00:47:17.629Z,1002.56
2017-09-08T00:48:12.641Z,1002.58
2017-09-08T00:49:07.049Z,1002.56
2017-09-08T00:50:01.984Z,1002.54
2017-09-08T00:50:55.762Z,1002.52
2017-09-08T00:51:51.071Z,1002.54
2017-09-08T00:52:50.879Z,1002.53
2017-09-08T00:53:45.955Z,1002.53
2017-09-08T00:54:40.357Z,1002.52
2017-09-08T00:55:34.855Z,1002.55
2017-09-08T00:56:29.997Z,1002.51
2017-09-08T00:57:24.018Z,1002.54
2017-09-08T00:58:19.051Z,1002.55
2017-09-08T00:59:13.467Z,1002.53
2017-09-08T01:00:08.186Z,1002.55
2017-09-08T01:01:08.133Z,1002.53
2017-09-08T01:01:56.181Z,1002.54
2017-09-08T01:02:51.239Z,1002.53
2017-09-08T01:03:45.502Z,1002.50
2017-09-08T01:04:39.528Z,1002.51
2017-09-08T01:05:39.327Z,1002.52
2017-09-08T01:06:27.367Z,1002.50
2017-09-08T01:07:22.411Z,1002.49
2017-09-08T01:08:17.494Z,1002.45
2017-09-08T01:09:11.834Z,1002.43
2017-09-08T01:10:05.559Z,1002.42
2017-09-08T01:10:59.958Z,1002.45
2017-09-08T01:11:59.611Z,1002.48
2017-09-08T01:12:59.651Z,1002.50
2017-09-08T01:13:48.667Z,1002.52
2017-09-08T01:14:42.970Z,1002.49
2017-09-08T01:15:42.787Z,1002.49
2017-09-08T01:16:36.783Z,1002.39
2017-09-08T01:17:25.852Z,1002.45
2017-09-08T01:18:19.850Z,1002.41
2017-09-08T01:19:09.214Z,1002.38
2017-09-08T01:20:09.925Z,1002.37
2017-09-08T01:20:59.192Z,1002.42
2017-09-08T01:21:53.070Z,1002.29
2017-09-08T01:22:47.458Z,1002.29
2017-09-08T01:23:42.093Z,1002.29
2017-09-08T01:24:42.544Z,1002.27
2017-09-08T01:25:31.186Z,1002.20
2017-09-08T01:26:26.327Z,1002.23
2017-09-08T01:27:20.431Z,1002.18
2017-09-08T01:28:15.255Z,1002.20
2017-09-08T01:29:04.607Z,1002.24
2017-09-08T01:29:58.258Z,1002.17
2017-09-08T01:30:58.417Z,1002.19
2017-09-08T01:31:52.398Z,1002.19
2017-09-08T01:32:47.476Z,1002.13
2017-09-08T01:33:47.477Z,1002.17
2017-09-08T01:34:42.647Z,1002.18
2017-09-08T01:35:43.626Z,1002.14
2017-09-08T01:36:38.559Z,1002.13
2017-09-08T01:37:27.622Z,1002.09
2017-09-08T01:38:22.865Z,1002.07
2017-09-08T01:39:16.764Z,1002.09
2017-09-08T01:40:10.761Z,1002.00
2017-09-08T01:41:04.884Z,1002.01
2017-09-08T01:41:59.832Z,1002.00
2017-09-08T01:42:53.851Z,1001.97
2017-09-08T01:43:42.973Z,1001.91
2017-09-08T01:44:43.907Z,1001.91
2017-09-08T01:45:31.920Z,1001.87
2017-09-08T01:46:26.063Z,1001.82
2017-09-08T01:47:20.317Z,1001.83
2017-09-08T01:48:20.078Z,1001.79
2017-09-08T01:49:14.579Z,1001.73
2017-09-08T01:50:14.160Z,1001.71
2017-09-08T01:51:08.215Z,1001.69
2017-09-08T01:52:03.245Z,1001.66
2017-09-08T01:52:52.229Z,1001.67
2017-09-08T01:53:46.304Z,1001.65
2017-09-08T01:54:40.318Z,1001.60
2017-09-08T01:55:34.499Z,1001.65
2017-09-08T01:56:34.413Z,1001.62
2017-09-08T01:57:28.461Z,1001.59
2017-09-08T01:58:22.611Z,1001.57
2017-09-08T01:59:16.975Z,1001.55
2017-09-08T02:00:11.700Z,1001.48
2017-09-08T02:01:11.599Z,1001.45
2017-09-08T02:01:59.595Z,1001.51
2017-09-08T02:02:53.671Z,1001.49
2017-09-08T02:03:47.720Z,1001.52
2017-09-08T02:04:41.697Z,1001.53
2017-09-08T02:05:42.909Z,1001.53
2017-09-08T02:06:31.839Z,1001.53
2017-09-08T02:07:26.832Z,1001.55
2017-09-08T02:08:20.898Z,1001.52
2017-09-08T02:09:21.125Z,1001.46
2017-09-08T02:10:15.964Z,1001.46
2017-09-08T02:11:16.285Z,1001.43
2017-09-08T02:12:10.429Z,1001.38
2017-09-08T02:13:10.275Z,1001.33
2017-09-08T02:14:04.411Z,1001.35
2017-09-08T02:15:04.100Z,1001.31
2017-09-08T02:15:52.404Z,1001.34
2017-09-08T02:16:47.232Z,1001.38
2017-09-08T02:17:36.277Z,1001.35
2017-09-08T02:18:30.490Z,1001.38
2017-09-08T02:19:30.815Z,1001.37
2017-09-08T02:20:24.736Z,1001.33
2017-09-08T02:21:24.304Z,1001.36
2017-09-08T02:22:19.433Z,1001.29
2017-09-08T02:23:14.643Z,1001.31
2017-09-08T02:24:14.894Z,1001.23
2017-09-08T02:25:08.486Z,1001.21
2017-09-08T02:26:02.528Z,1001.16
2017-09-08T02:26:56.543Z,1001.18
2017-09-08T02:27:56.636Z,1001.16
2017-09-08T02:28:51.673Z,1001.13
2017-09-08T02:29:52.075Z,1001.05
2017-09-08T02:30:45.925Z,1000.95
2017-09-08T02:31:45.761Z,1000.95
2017-09-08T02:32:40.970Z,1000.91
2017-09-08T02:33:35.853Z,1000.88
2017-09-08T02:34:30.311Z,1000.85
2017-09-08T02:35:18.962Z,1000.81
2017-09-08T02:36:07.968Z,1000.76
2017-09-08T02:36:57.307Z,1000.75
2017-09-08T02:37:52.328Z,1000.71
2017-09-08T02:38:52.109Z,1000.64
2017-09-08T02:39:47.486Z,1000.61
2017-09-08T02:40:47.136Z,1000.57
2017-09-08T02:41:36.369Z,1000.60
2017-09-08T02:42:31.376Z,1000.60
2017-09-08T02:43:20.222Z,1000.56
2017-09-08T02:44:26.644Z,1000.54
2017-09-08T02:45:20.355Z,1000.56
2017-09-08T02:46:14.340Z,1000.53
2017-09-08T02:47:08.409Z,1000.55
2017-09-08T02:48:08.359Z,1000.54
2017-09-08T02:49:02.457Z,1000.53
2017-09-08T02:49:56.727Z,1000.52
2017-09-08T02:50:57.583Z,1000.53
2017-09-08T02:51:52.553Z,1000.50
2017-09-08T02:52:47.611Z,1000.48
2017-09-08T02:53:47.682Z,1000.57
2017-09-08T02:54:41.923Z,1000.54
2017-09-08T02:55:42.874Z,1000.56
2017-09-08T02:56:37.781Z,1000.53
2017-09-08T02:57:38.794Z,1000.50
2017-09-08T02:58:32.812Z,1000.50
2017-09-08T02:59:21.907Z,1000.53
2017-09-08T03:00:27.782Z,1000.51
2017-09-08T03:01:21.906Z,1000.53
2017-09-08T03:02:22.222Z,1000.51
2017-09-08T03:03:09.955Z,1000.52
2017-09-08T03:03:59.035Z,1000.54
2017-09-08T03:04:47.048Z,1000.51
2017-09-08T03:05:47.153Z,1000.49
2017-09-08T03:06:35.184Z,1000.51
2017-09-08T03:07:41.158Z,1000.47
2017-09-08T03:08:36.262Z,1000.46
2017-09-08T03:09:24.676Z,1000.42
2017-09-08T03:10:18.197Z,1000.37
2017-09-08T03:11:12.321Z,1000.33
2017-09-08T03:12:12.339Z,1000.33
2017-09-08T03:13:01.386Z,1000.30
2017-09-08T03:13:55.410Z,1000.32
2017-09-08T03:14:55.926Z,1000.33
2017-09-08T03:15:56.880Z,1000.26
2017-09-08T03:16:57.513Z,1000.24
2017-09-08T03:17:46.571Z,1000.19
2017-09-08T03:18:42.078Z,1000.18
2017-09-08T03:19:35.653Z,1000.20
2017-09-08T03:20:23.705Z,1000.17
2017-09-08T03:21:11.782Z,1000.19
2017-09-08T03:22:00.749Z,1000.14
2017-09-08T03:22:54.838Z,1000.13
2017-09-08T03:23:54.842Z,1000.09
2017-09-08T03:24:44.119Z,1000.06
2017-09-08T03:25:38.915Z,1000.04
2017-09-08T03:26:32.953Z,1000.02
2017-09-08T03:27:27.975Z,999.99
2017-09-08T03:28:22.051Z,1000.00
2017-09-08T03:29:22.355Z,1000.02
2017-09-08T03:30:17.094Z,1000.00
2017-09-08T03:31:11.159Z,1000.02
2017-09-08T03:32:11.456Z,1000.05
2017-09-08T03:32:59.239Z,1000.04
2017-09-08T03:33:54.238Z,1000.02
2017-09-08T03:34:48.252Z,999.96
2017-09-08T03:35:42.295Z,999.98
2017-09-08T03:36:31.597Z,999.99
2017-09-08T03:37:19.433Z,1000.00
2017-09-08T03:38:13.435Z,1000.00
2017-09-08T03:39:01.629Z,999.98
2017-09-08T03:39:57.012Z,999.97
2017-09-08T03:40:45.556Z,999.95
2017-09-08T03:41:40.604Z,999.94
2017-09-08T03:42:34.577Z,999.94
2017-09-08T03:43:34.655Z,999.94
2017-09-08T03:44:28.871Z,999.91
2017-09-08T03:45:17.710Z,999.95
2017-09-08T03:46:12.780Z,999.95
2017-09-08T03:47:06.821Z,1000.00
2017-09-08T03:48:06.886Z,999.94
2017-09-08T03:49:06.893Z,999.91
2017-09-08T03:50:01.926Z,999.97
2017-09-08T03:50:55.936Z,999.97
2017-09-08T03:51:43.985Z,999.94
2017-09-08T03:52:39.107Z,999.89
2017-09-08T03:53:34.417Z,999.83
2017-09-08T03:54:23.175Z,999.83
2017-09-08T03:55:23.156Z,999.80
2017-09-08T03:56:18.165Z,999.83
2017-09-08T03:57:07.659Z,999.71
2017-09-08T03:58:13.258Z,999.72
2017-09-08T03:59:01.282Z,999.69
2017-09-08T04:00:01.306Z,999.64
2017-09-08T04:00:55.527Z,999.67
2017-09-08T04:01:49.361Z,999.60
2017-09-08T04:02:43.616Z,999.59
2017-09-08T04:03:43.460Z,999.53
2017-09-08T04:04:38.451Z,999.53
2017-09-08T04:05:27.574Z,999.48
2017-09-08T04:06:16.670Z,999.49
2017-09-08T04:07:05.602Z,999.52
2017-09-08T04:07:59.601Z,999.44
2017-09-08T04:08:59.726Z,999.44
2017-09-08T04:09:54.159Z,999.39
2017-09-08T04:10:53.768Z,999.36
2017-09-08T04:11:47.949Z,999.32
2017-09-08T04:12:47.849Z,999.32
2017-09-08T04:13:41.842Z,999.28
2017-09-08T04:14:42.374Z,999.27
2017-09-08T04:15:41.970Z,999.28
2017-09-08T04:16:35.945Z,999.23
2017-09-08T04:17:24.021Z,999.20
2017-09-08T04:18:18.074Z,999.21
2017-09-08T04:19:12.109Z,999.18
2017-09-08T04:20:07.185Z,999.17
2017-09-08T04:20:56.153Z,999.16
2017-09-08T04:21:44.247Z,999.16
2017-09-08T04:22:39.868Z,999.15
2017-09-08T04:23:33.293Z,999.10
2017-09-08T04:24:22.352Z,999.08
2017-09-08T04:25:16.326Z,999.07
2017-09-08T04:26:05.389Z,999.08
2017-09-08T04:26:59.616Z,999.10
2017-09-08T04:27:59.678Z,999.05
2017-09-08T04:28:53.502Z,999.06
2017-09-08T04:29:47.607Z,999.06
2017-09-08T04:30:36.543Z,999.06
2017-09-08T04:31:36.636Z,999.09
2017-09-08T04:32:37.630Z,999.14
2017-09-08T04:33:31.717Z,999.13
2017-09-08T04:34:26.912Z,999.15
2017-09-08T04:35:20.764Z,999.12
2017-09-08T04:36:20.839Z,999.13
2017-09-08T04:37:20.846Z,999.09
2017-09-08T04:38:20.877Z,999.07
2017-09-08T04:39:15.283Z,999.04
2017-09-08T04:40:08.931Z,999.03
2017-09-08T04:41:02.984Z,999.01
2017-09-08T04:41:57.027Z,999.00
2017-09-08T04:42:52.047Z,998.98
2017-09-08T04:43:53.081Z,999.00
2017-09-08T04:44:41.249Z,998.97
2017-09-08T04:45:35.173Z,999.00
2017-09-08T04:46:29.231Z,999.01
2017-09-08T04:47:18.280Z,998.98
2017-09-08T04:48:13.223Z,998.99
2017-09-08T04:49:08.788Z,998.97
2017-09-08T04:50:08.363Z,998.96
2017-09-08T04:51:02.315Z,998.95
2017-09-08T04:51:51.777Z,998.87
2017-09-08T04:52:46.729Z,998.88
2017-09-08T04:53:40.618Z,998.86
2017-09-08T04:54:40.930Z,998.88
2017-09-08T04:55:35.850Z,998.86
2017-09-08T04:56:30.920Z,998.86
2017-09-08T04:57:31.637Z,998.82
2017-09-08T04:58:31.655Z,998.77
2017-09-08T04:59:31.665Z,998.72
2017-09-08T05:00:26.711Z,998.79
2017-09-08T05:01:21.032Z,998.79
2017-09-08T05:02:08.825Z,998.78
2017-09-08T05:03:08.834Z,998.76
2017-09-08T05:04:02.889Z,998.74
2017-09-08T05:04:57.908Z,998.72
2017-09-08T05:05:52.979Z,998.77
2017-09-08T05:06:47.047Z,998.76
2017-09-08T05:07:36.019Z,998.70
2017-09-08T05:08:25.118Z,998.74
2017-09-08T05:09:14.551Z,998.72
2017-09-08T05:10:09.262Z,998.70
2017-09-08T05:10:58.233Z,998.71
2017-09-08T05:11:58.242Z,998.71
2017-09-08T05:12:58.247Z,998.69
2017-09-08T05:13:52.314Z,998.68
2017-09-08T05:14:46.310Z,998.74
2017-09-08T05:15:35.352Z,998.63
2017-09-08T05:16:35.405Z,998.68
2017-09-08T05:17:24.753Z,998.66
2017-09-08T05:18:12.489Z,998.67
2017-09-08T05:19:12.986Z,998.66
2017-09-08T05:20:07.578Z,998.66
2017-09-08T05:21:01.709Z,998.68
2017-09-08T05:21:56.641Z,998.67
2017-09-08T05:22:57.988Z,998.64
2017-09-08T05:23:46.714Z,998.60
2017-09-08T05:24:34.743Z,998.63
2017-09-08T05:25:34.760Z,998.62
2017-09-08T05:26:28.832Z,998.57
2017-09-08T05:27:22.878Z,998.62
2017-09-08T05:28:22.954Z,998.59
2017-09-08T05:29:17.524Z,998.60
2017-09-08T05:30:11.009Z,998.62
2017-09-08T05:31:00.004Z,998.59
2017-09-08T05:31:55.020Z,998.56
2017-09-08T05:32:55.055Z,998.56
2017-09-08T05:33:49.464Z,998.59
2017-09-08T05:34:38.600Z,998.56
2017-09-08T05:35:32.169Z,998.50
2017-09-08T05:36:26.246Z,998.52
2017-09-08T05:37:26.311Z,998.50
2017-09-08T05:38:20.347Z,998.52
2017-09-08T05:39:20.825Z,998.52
2017-09-08T05:40:20.402Z,998.49
2017-09-08T05:41:09.397Z,998.47
2017-09-08T05:42:09.461Z,998.53
2017-09-08T05:43:03.464Z,998.52
2017-09-08T05:43:58.563Z,998.48
2017-09-08T05:44:54.144Z,998.48
2017-09-08T05:45:41.621Z,998.53
2017-09-08T05:46:30.668Z,998.52
2017-09-08T05:47:25.669Z,998.54
2017-09-08T05:48:19.720Z,998.56
2017-09-08T05:49:14.215Z,998.50
2017-09-08T05:50:07.807Z,998.49
2017-09-08T05:51:01.862Z,998.48
2017-09-08T05:51:55.867Z,998.43
2017-09-08T05:52:44.833Z,998.44
2017-09-08T05:53:38.986Z,998.38
2017-09-08T05:54:33.031Z,998.45
2017-09-08T05:55:28.033Z,998.42
2017-09-08T05:56:22.079Z,998.39
2017-09-08T05:57:17.563Z,998.38
2017-09-08T05:58:12.158Z,998.34
2017-09-08T05:59:06.208Z,998.39
2017-09-08T06:00:06.245Z,998.32
2017-09-08T06:01:01.344Z,998.30
2017-09-08T06:01:56.423Z,998.31
2017-09-08T06:02:44.390Z,998.29
2017-09-08T06:03:44.370Z,998.26
2017-09-08T06:04:33.433Z,998.23
2017-09-08T06:05:27.473Z,998.28
2017-09-08T06:06:21.598Z,998.26
2017-09-08T06:07:09.594Z,998.21
2017-09-08T06:08:03.570Z,998.24
2017-09-08T06:08:57.598Z,998.23
2017-09-08T06:09:51.561Z,998.23
2017-09-08T06:10:40.057Z,998.25
2017-09-08T06:11:33.728Z,998.15
2017-09-08T06:12:27.739Z,998.21
2017-09-08T06:13:21.927Z,998.19
2017-09-08T06:14:16.832Z,998.15
2017-09-08T06:15:16.921Z,998.20
2017-09-08T06:16:11.912Z,998.15
2017-09-08T06:17:12.211Z,998.16
2017-09-08T06:18:05.904Z,998.18
2017-09-08T06:19:00.053Z,998.21
2017-09-08T06:19:54.054Z,998.17
2017-09-08T06:20:48.380Z,998.15
2017-09-08T06:21:42.097Z,998.11
2017-09-08T06:22:31.467Z,998.16
2017-09-08T06:23:25.238Z,998.11
2017-09-08T06:24:14.896Z,998.15
2017-09-08T06:25:08.498Z,998.10
2017-09-08T06:26:08.367Z,998.10
2017-09-08T06:27:08.358Z,998.02
2017-09-08T06:28:02.576Z,997.98
2017-09-08T06:29:02.476Z,997.96
2017-09-08T06:29:57.494Z,997.88
2017-09-08T06:30:57.517Z,997.88
2017-09-08T06:31:51.882Z,997.91
2017-09-08T06:32:45.593Z,997.88
2017-09-08T06:33:45.608Z,997.81
2017-09-08T06:34:40.862Z,997.83
2017-09-08T06:35:28.703Z,997.81
2017-09-08T06:36:28.766Z,997.75
2017-09-08T06:37:23.864Z,997.77
2017-09-08T06:38:17.797Z,997.77
2017-09-08T06:39:13.316Z,997.76
2017-09-08T06:40:08.110Z,997.77
2017-09-08T06:41:01.967Z,997.76
2017-09-08T06:42:03.148Z,997.73
2017-09-08T06:42:57.024Z,997.68
2017-09-08T06:43:51.012Z,997.72
2017-09-08T06:44:52.136Z,997.65
2017-09-08T06:45:46.136Z,997.64
2017-09-08T06:46:41.131Z,997.56
2017-09-08T06:47:30.476Z,997.61
2017-09-08T06:48:24.251Z,997.60
2017-09-08T06:49:19.551Z,997.59
2017-09-08T06:50:14.327Z,997.62
2017-09-08T06:51:08.619Z,997.64
2017-09-08T06:52:08.421Z,997.66
2017-09-08T06:53:02.444Z,997.65
2017-09-08T06:54:02.535Z,997.69
2017-09-08T06:54:56.561Z,997.65
2017-09-08T06:55:50.844Z,997.63
2017-09-08T06:56:45.664Z,997.63
2017-09-08T06:57:40.053Z,997.66
2017-09-08T06:58:34.667Z,997.61
2017-09-08T06:59:28.766Z,997.58
2017-09-08T07:00:23.729Z,997.64
2017-09-08T07:01:23.791Z,997.61
2017-09-08T07:02:18.169Z,997.65
2017-09-08T07:03:17.868Z,997.63
2017-09-08T07:04:17.989Z,997.57
2017-09-08T07:05:12.168Z,997.60
2017-09-08T07:06:13.319Z,997.50
2017-09-08T07:07:07.047Z,997.50
2017-09-08T07:08:07.011Z,997.53
2017-09-08T07:09:01.071Z,997.53
2017-09-08T07:09:55.125Z,997.51
2017-09-08T07:10:56.170Z,997.46
2017-09-08T07:11:50.205Z,997.43
2017-09-08T07:12:50.431Z,997.47
2017-09-08T07:13:44.263Z,997.51
2017-09-08T07:14:44.695Z,997.53
2017-09-08T07:15:38.333Z,997.52
2017-09-08T07:16:33.444Z,997.52
2017-09-08T07:17:33.427Z,997.49
2017-09-08T07:18:22.481Z,997.51
2017-09-08T07:19:12.054Z,997.52
2017-09-08T07:20:06.992Z,997.53
2017-09-08T07:21:00.588Z,997.58
2017-09-08T07:22:00.984Z,997.56
2017-09-08T07:22:54.692Z,997.55
2017-09-08T07:23:48.735Z,997.49
2017-09-08T07:24:37.792Z,997.49
2017-09-08T07:25:32.841Z,997.45
2017-09-08T07:26:32.840Z,997.45
2017-09-08T07:27:21.880Z,997.53
2017-09-08T07:28:21.930Z,997.42
2017-09-08T07:29:16.554Z,997.43
2017-09-08T07:30:10.984Z,997.44
2017-09-08T07:31:06.036Z,997.36
2017-09-08T07:32:00.078Z,997.37
2017-09-08T07:32:55.179Z,997.38
2017-09-08T07:33:55.328Z,997.38
2017-09-08T07:34:50.267Z,997.41
2017-09-08T07:35:50.291Z,997.36
2017-09-08T07:36:44.295Z,997.37
2017-09-08T07:37:38.333Z,997.32
2017-09-08T07:38:32.368Z,997.27
2017-09-08T07:39:32.375Z,997.40
2017-09-08T07:40:26.992Z,997.35
2017-09-08T07:41:26.407Z,997.32
2017-09-08T07:42:26.634Z,997.40
2017-09-08T07:43:20.588Z,997.43
2017-09-08T07:44:20.557Z,997.40
2017-09-08T07:45:14.647Z,997.46
2017-09-08T07:46:03.732Z,997.39
2017-09-08T07:47:03.660Z,997.41
2017-09-08T07:47:58.788Z,997.36
2017-09-08T07:48:53.812Z,997.35
2017-09-08T07:49:48.818Z,997.35
2017-09-08T07:50:48.856Z,997.36
2017-09-08T07:51:42.926Z,997.33
2017-09-08T07:52:37.897Z,997.37
2017-09-08T07:53:38.951Z,997.37
2017-09-08T07:54:34.177Z,997.39
2017-09-08T07:55:29.076Z,997.34
2017-09-08T07:56:23.088Z,997.46
2017-09-08T07:57:23.210Z,997.40
2017-09-08T07:58:12.149Z,997.36
2017-09-08T07:59:12.652Z,997.36
2017-09-08T08:00:12.379Z,997.34
2017-09-08T08:01:06.257Z,997.39
2017-09-08T08:02:00.354Z,997.33
2017-09-08T08:03:01.336Z,997.45
2017-09-08T08:04:02.412Z,997.42
2017-09-08T08:04:56.442Z,997.35
2017-09-08T08:05:45.468Z,997.29
2017-09-08T08:06:39.578Z,997.31
2017-09-08T08:07:39.533Z,997.31
2017-09-08T08:08:33.594Z,997.12
2017-09-08T08:09:33.723Z,997.39
2017-09-08T08:10:22.700Z,997.31
2017-09-08T08:11:11.808Z,997.30
2017-09-08T08:12:05.750Z,997.28
2017-09-08T08:13:05.781Z,997.28
2017-09-08T08:13:59.818Z,997.23
2017-09-08T08:14:59.889Z,997.27
2017-09-08T08:15:54.915Z,997.26
2017-09-08T08:16:48.910Z,997.18
2017-09-08T08:17:43.330Z,997.27
2017-09-08T08:18:38.005Z,997.21
2017-09-08T08:19:38.123Z,997.22
2017-09-08T08:20:27.179Z,997.21
2017-09-08T08:21:22.083Z,997.22
2017-09-08T08:22:16.145Z,997.17
2017-09-08T08:23:11.190Z,997.17
2017-09-08T08:24:11.288Z,997.18
2017-09-08T08:25:11.602Z,997.15
2017-09-08T08:26:11.347Z,997.25
2017-09-08T08:27:11.446Z,997.18
2017-09-08T08:28:05.376Z,997.28
2017-09-08T08:28:59.421Z,997.28
2017-09-08T08:29:54.596Z,997.28
2017-09-08T08:30:54.546Z,997.18
2017-09-08T08:31:49.575Z,997.32
2017-09-08T08:32:49.814Z,997.26
2017-09-08T08:33:43.636Z,997.23
2017-09-08T08:34:38.636Z,997.28
2017-09-08T08:35:38.836Z,997.30
2017-09-08T08:36:27.778Z,997.29
2017-09-08T08:37:22.848Z,997.37
2017-09-08T08:38:16.870Z,997.27
2017-09-08T08:39:10.864Z,997.30
2017-09-08T08:40:05.945Z,997.23
2017-09-08T08:40:59.954Z,997.24
2017-09-08T08:42:00.038Z,997.30
2017-09-08T08:43:00.092Z,997.29
2017-09-08T08:43:54.012Z,997.22
2017-09-08T08:44:49.116Z,997.24
2017-09-08T08:45:49.157Z,997.33
2017-09-08T08:46:43.267Z,997.35
2017-09-08T08:47:43.246Z,997.33
2017-09-08T08:48:37.258Z,997.29
2017-09-08T08:49:31.342Z,997.25
2017-09-08T08:50:20.378Z,997.19
2017-09-08T08:51:14.422Z,997.13
2017-09-08T08:52:08.453Z,997.13
2017-09-08T08:53:08.765Z,997.12
2017-09-08T08:53:57.589Z,997.14
2017-09-08T08:54:57.606Z,997.18
2017-09-08T08:55:51.656Z,997.06
2017-09-08T08:56:45.961Z,997.11
2017-09-08T08:57:45.669Z,997.20
2017-09-08T08:58:40.785Z,997.07
2017-09-08T08:59:34.754Z,997.17
2017-09-08T09:00:34.825Z,997.10
2017-09-08T09:01:34.792Z,997.19
2017-09-08T09:02:35.384Z,997.10
2017-09-08T09:03:23.853Z,997.11
2017-09-08T09:04:18.560Z,997.10
2017-09-08T09:05:13.057Z,997.07
2017-09-08T09:06:07.104Z,997.16
2017-09-08T09:07:07.022Z,997.11
2017-09-08T09:08:02.256Z,997.14
2017-09-08T09:08:57.180Z,997.14
2017-09-08T09:09:45.211Z,997.12
2017-09-08T09:10:45.248Z,997.09
2017-09-08T09:11:39.396Z,997.08
2017-09-08T09:12:39.355Z,997.16
2017-09-08T09:13:33.628Z,997.11
2017-09-08T09:14:27.685Z,997.08
2017-09-08T09:15:22.505Z,997.02
2017-09-08T09:16:22.408Z,996.93
2017-09-08T09:17:17.779Z,996.95
2017-09-08T09:18:12.761Z,997.02
2017-09-08T09:19:01.637Z,997.00
2017-09-08T09:20:02.811Z,996.85
2017-09-08T09:21:02.647Z,996.99
2017-09-08T09:22:02.680Z,997.00
2017-09-08T09:23:02.734Z,997.03
2017-09-08T09:24:03.206Z,997.06
2017-09-08T09:25:03.173Z,997.06
2017-09-08T09:25:56.931Z,996.99
2017-09-08T09:26:52.140Z,996.94
2017-09-08T09:27:45.993Z,997.04
2017-09-08T09:28:40.040Z,996.91
2017-09-08T09:29:40.201Z,997.03
2017-09-08T09:30:35.400Z,997.07
2017-09-08T09:31:35.205Z,997.00
2017-09-08T09:32:29.307Z,997.10
2017-09-08T09:33:30.365Z,997.00
2017-09-08T09:34:31.302Z,997.05
2017-09-08T09:35:25.513Z,997.05
2017-09-08T09:36:19.377Z,997.10
2017-09-08T09:37:14.483Z,997.06
2017-09-08T09:38:15.443Z,996.96
2017-09-08T09:39:09.425Z,996.95
2017-09-08T09:39:58.573Z,996.95
2017-09-08T09:40:53.865Z,996.92
2017-09-08T09:41:48.711Z,996.96
2017-09-08T09:42:54.765Z,997.03
2017-09-08T09:43:49.626Z,996.97
2017-09-08T09:44:44.693Z,996.98
2017-09-08T09:45:45.017Z,996.86
2017-09-08T09:46:38.804Z,996.92
2017-09-08T09:47:27.842Z,996.91
2017-09-08T09:48:21.857Z,996.99
2017-09-08T09:49:17.399Z,996.90
2017-09-08T09:50:10.950Z,996.88
2017-09-08T09:51:11.220Z,996.76
2017-09-08T09:52:00.351Z,996.92
2017-09-08T09:52:54.139Z,996.87
2017-09-08T09:53:54.197Z,996.87
2017-09-08T09:54:49.095Z,996.83
2017-09-08T09:55:49.535Z,996.89
2017-09-08T09:56:43.275Z,996.83
2017-09-08T09:57:43.311Z,996.89
2017-09-08T09:58:38.351Z,996.82
2017-09-08T09:59:33.420Z,996.79
2017-09-08T10:00:27.387Z,996.78
2017-09-08T10:01:22.382Z,996.87
2017-09-08T10:02:16.475Z,996.83
2017-09-08T10:03:05.539Z,996.87
2017-09-08T10:04:00.566Z,996.84
2017-09-08T10:04:54.675Z,996.79
2017-09-08T10:05:49.655Z,996.78
2017-09-08T10:06:49.791Z,996.69
2017-09-08T10:07:43.771Z,996.74
2017-09-08T10:08:38.711Z,996.76
2017-09-08T10:09:32.938Z,996.74
2017-09-08T10:10:27.903Z,996.65
2017-09-08T10:11:22.917Z,996.62
2017-09-08T10:12:23.020Z,996.69
2017-09-08T10:13:17.973Z,996.66
2017-09-08T10:14:18.416Z,996.66
2017-09-08T10:15:13.143Z,996.69
2017-09-08T10:16:01.160Z,996.70
2017-09-08T10:16:56.219Z,996.69
2017-09-08T10:17:50.146Z,996.66
2017-09-08T10:18:38.280Z,996.61
2017-09-08T10:19:33.650Z,996.66
2017-09-08T10:20:28.409Z,996.81
2017-09-08T10:21:22.645Z,996.75
2017-09-08T10:22:17.351Z,996.65
2017-09-08T10:23:17.391Z,996.70
2017-09-08T10:24:11.535Z,996.78
2017-09-08T10:25:05.489Z,996.67
2017-09-08T10:25:54.570Z,996.80
2017-09-08T10:26:49.029Z,996.63
2017-09-08T10:27:43.863Z,996.57
2017-09-08T10:28:43.699Z,996.60
2017-09-08T10:29:37.731Z,996.64
2017-09-08T10:30:38.727Z,996.66
2017-09-08T10:31:33.285Z,996.64
2017-09-08T10:32:26.845Z,996.70
2017-09-08T10:33:26.852Z,996.64
2017-09-08T10:34:21.299Z,996.66
2017-09-08T10:35:09.933Z,996.59
2017-09-08T10:36:03.983Z,996.63
2017-09-08T10:36:59.057Z,996.66
2017-09-08T10:37:48.053Z,996.59
2017-09-08T10:38:43.445Z,996.64
2017-09-08T10:39:43.454Z,996.64
2017-09-08T10:40:38.138Z,996.58
2017-09-08T10:41:26.234Z,996.57
2017-09-08T10:42:26.242Z,996.57
2017-09-08T10:43:21.295Z,996.49
2017-09-08T10:44:09.617Z,996.52
2017-09-08T10:45:10.633Z,996.51
2017-09-08T10:46:04.552Z,996.43
2017-09-08T10:46:59.528Z,996.49
2017-09-08T10:47:48.688Z,996.47
2017-09-08T10:48:42.564Z,996.48
2017-09-08T10:49:37.567Z,996.49
2017-09-08T10:50:33.086Z,996.50
2017-09-08T10:51:26.675Z,996.50
2017-09-08T10:52:26.704Z,996.52
2017-09-08T10:53:20.796Z,996.52
2017-09-08T10:54:21.450Z,996.53
2017-09-08T10:55:15.976Z,996.52
2017-09-08T10:56:10.266Z,996.56
2017-09-08T10:56:57.888Z,996.57
2017-09-08T10:57:46.979Z,996.58
2017-09-08T10:58:41.058Z,996.54
2017-09-08T10:59:36.010Z,996.55
2017-09-08T11:00:31.144Z,996.60
2017-09-08T11:01:25.135Z,996.50
2017-09-08T11:02:19.170Z,996.58
2017-09-08T11:03:13.244Z,996.52
2017-09-08T11:04:08.635Z,996.50
2017-09-08T11:04:57.345Z,996.56
2017-09-08T11:05:51.360Z,996.58
2017-09-08T11:06:51.379Z,996.53
2017-09-08T11:07:40.452Z,996.56
2017-09-08T11:08:35.467Z,996.55
2017-09-08T11:09:35.596Z,996.64
2017-09-08T11:10:29.992Z,996.66
2017-09-08T11:11:29.555Z,996.55
2017-09-08T11:12:29.597Z,996.54
2017-09-08T11:13:23.972Z,996.61
2017-09-08T11:14:23.913Z,996.53
2017-09-08T11:15:18.792Z,996.60
2017-09-08T11:16:12.737Z,996.54
2017-09-08T11:17:07.833Z,996.61
2017-09-08T11:18:01.847Z,996.66
2017-09-08T11:18:49.933Z,996.56
2017-09-08T11:19:43.979Z,996.60